Tauranga Harbour, New Zealand
Current Conditions -  °F | °C
As of 11:00 AM on Friday 28 Nov 2014 (Local Time) from NZAA Reporting Station
Scattered Clouds Scattered Clouds  
Wind Chill: 64°   Ceiling: Unl
Heat Index: 64°   Visibility: 6mi
Dew Point: 55°   Wind: 9mph
Humidity: 73%   Direction: 290°WNW
Pressure: 29.77"   Gusts: NA
Location:  37.53°S, 175.99°E
Report Text: NZAA 272300Z AUTO 29008KT 250V330 9999 FEW019/// SCT090///18/13 Q1008 TEMPO 6000 SHRA FEW020TCU
Loading
Personal Weather Stations






























Interactive Weather Map New forecast layout! Learn more

10-Day Weather Forecast

Advertisements
Track Severe Weather on mobile